createdAt,value
2022-08-23T00:00:47.550Z,18.09
2022-08-23T00:01:45.562Z,18.05
2022-08-23T00:02:45.636Z,18.10
2022-08-23T00:03:45.523Z,18.09
2022-08-23T00:04:55.818Z,18.10
2022-08-23T00:05:46.492Z,18.15
2022-08-23T00:06:45.518Z,18.07
2022-08-23T00:07:45.501Z,18.07
2022-08-23T00:08:48.749Z,18.12
2022-08-23T00:09:45.458Z,18.10
2022-08-23T00:10:46.450Z,18.03
2022-08-23T00:11:45.507Z,18.03
2022-08-23T00:12:45.444Z,18.12
2022-08-23T00:13:47.486Z,17.97
2022-08-23T00:14:45.513Z,18.03
2022-08-23T00:15:45.415Z,17.95
2022-08-23T00:16:45.439Z,17.95
2022-08-23T00:17:45.402Z,17.98
2022-08-23T00:18:48.981Z,17.89
2022-08-23T00:19:45.381Z,17.86
2022-08-23T00:20:45.380Z,17.82
2022-08-23T00:21:45.390Z,17.78
2022-08-23T00:22:45.359Z,17.71
2022-08-23T00:23:45.346Z,17.54
2022-08-23T00:24:45.336Z,17.42
2022-08-23T00:25:45.338Z,17.56
2022-08-23T00:26:45.355Z,17.42
2022-08-23T00:27:45.309Z,17.42
2022-08-23T00:28:45.299Z,17.38
2022-08-23T00:29:45.294Z,17.30
2022-08-23T00:30:45.278Z,17.29
2022-08-23T00:31:45.308Z,17.24
2022-08-23T00:32:45.274Z,17.19
2022-08-23T00:33:45.258Z,17.22
2022-08-23T00:34:45.244Z,17.27
2022-08-23T00:35:45.236Z,17.22
2022-08-23T00:36:45.264Z,17.22
2022-08-23T00:37:45.219Z,17.20
2022-08-23T00:38:46.212Z,17.23
2022-08-23T00:39:45.236Z,17.27
2022-08-23T00:40:45.219Z,17.23
2022-08-23T00:41:45.192Z,17.29
2022-08-23T00:42:45.222Z,17.29
2022-08-23T00:43:45.193Z,17.35
2022-08-23T00:44:45.174Z,17.30
2022-08-23T00:45:45.159Z,17.29
2022-08-23T00:46:45.160Z,17.29
2022-08-23T00:47:45.182Z,17.29
2022-08-23T00:48:45.137Z,17.29
2022-08-23T00:49:45.130Z,17.31
2022-08-23T00:50:45.121Z,17.27
2022-08-23T00:51:52.548Z,17.29
2022-08-23T00:52:46.127Z,17.31
2022-08-23T00:53:45.094Z,17.38
2022-08-23T00:54:45.088Z,17.38
2022-08-23T00:55:45.076Z,17.42
2022-08-23T00:56:45.069Z,17.35
2022-08-23T00:57:45.095Z,17.31
2022-08-23T00:58:45.051Z,17.29
2022-08-23T00:59:45.056Z,17.29
2022-08-23T01:01:07.881Z,17.26
2022-08-23T01:01:46.088Z,17.24
2022-08-23T01:02:45.052Z,17.23
2022-08-23T01:03:45.024Z,17.26
2022-08-23T01:04:45.002Z,17.22
2022-08-23T01:05:45.010Z,17.24
2022-08-23T01:06:44.983Z,17.20
2022-08-23T01:07:45.006Z,17.22
2022-08-23T01:08:44.968Z,17.19
2022-08-23T01:09:44.964Z,17.23
2022-08-23T01:10:44.952Z,17.20
2022-08-23T01:11:44.939Z,17.26
2022-08-23T01:12:44.965Z,17.24
2022-08-23T01:13:44.934Z,17.23
2022-08-23T01:14:44.914Z,17.24
2022-08-23T01:15:44.907Z,17.08
2022-08-23T01:16:44.906Z,16.99
2022-08-23T01:17:44.922Z,17.04
2022-08-23T01:18:44.881Z,17.02
2022-08-23T01:19:44.874Z,16.98
2022-08-23T01:20:44.874Z,16.98
2022-08-23T01:21:44.854Z,16.89
2022-08-23T01:22:44.880Z,16.90
2022-08-23T01:23:44.837Z,16.89
2022-08-23T01:24:59.609Z,16.90
2022-08-23T01:25:45.830Z,16.90
2022-08-23T01:26:44.824Z,16.89
2022-08-23T01:27:44.844Z,16.96
2022-08-23T01:28:45.829Z,16.99
2022-08-23T01:29:44.789Z,16.93
2022-08-23T01:30:44.786Z,16.86
2022-08-23T01:31:44.779Z,16.91
2022-08-23T01:32:44.805Z,16.91
2022-08-23T01:33:44.759Z,16.83
2022-08-23T01:34:51.663Z,16.89
2022-08-23T01:35:45.748Z,16.87
2022-08-23T01:36:44.736Z,16.83
2022-08-23T01:37:44.755Z,16.83
2022-08-23T01:38:44.715Z,16.71
2022-08-23T01:39:44.729Z,16.69
2022-08-23T01:40:45.706Z,16.74
2022-08-23T01:41:44.700Z,16.66
2022-08-23T01:42:44.710Z,16.59
2022-08-23T01:43:44.672Z,16.56
2022-08-23T01:44:44.683Z,16.57
2022-08-23T01:45:44.658Z,16.59
2022-08-23T01:46:44.653Z,16.47
2022-08-23T01:47:44.669Z,16.46
2022-08-23T01:48:44.634Z,16.47
2022-08-23T01:49:44.623Z,16.39
2022-08-23T01:50:44.618Z,16.34
2022-08-23T01:51:44.609Z,16.34
2022-08-23T01:52:46.751Z,16.29
2022-08-23T01:53:44.593Z,16.26
2022-08-23T01:54:44.598Z,16.25
2022-08-23T01:55:44.601Z,16.21
2022-08-23T01:56:44.575Z,16.10
2022-08-23T01:57:45.498Z,16.17
2022-08-23T01:58:44.587Z,16.09
2022-08-23T01:59:44.538Z,15.98
2022-08-23T02:00:44.554Z,15.98
2022-08-23T02:01:44.573Z,16.12
2022-08-23T02:02:44.514Z,16.06
2022-08-23T02:03:44.533Z,16.00
2022-08-23T02:04:44.494Z,16.01
2022-08-23T02:05:44.533Z,16.02
2022-08-23T02:06:44.476Z,16.06
2022-08-23T02:07:44.470Z,15.91
2022-08-23T02:08:44.492Z,15.95
2022-08-23T02:09:44.454Z,15.85
2022-08-23T02:10:44.448Z,15.94
2022-08-23T02:11:44.446Z,16.00
2022-08-23T02:12:44.431Z,15.83
2022-08-23T02:13:44.451Z,15.95
2022-08-23T02:14:44.418Z,15.94
2022-08-23T02:15:44.407Z,15.91
2022-08-23T02:16:56.528Z,15.82
2022-08-23T02:17:45.383Z,15.91
2022-08-23T02:18:44.435Z,15.87
2022-08-23T02:19:44.389Z,15.83
2022-08-23T02:20:44.363Z,15.87
2022-08-23T02:21:44.381Z,15.91
2022-08-23T02:22:44.349Z,15.79
2022-08-23T02:23:44.361Z,15.87
2022-08-23T02:24:44.329Z,15.76
2022-08-23T02:25:44.337Z,15.75
2022-08-23T02:26:46.418Z,15.61
2022-08-23T02:27:44.413Z,15.75
2022-08-23T02:28:44.333Z,15.64
2022-08-23T02:29:44.286Z,15.62
2022-08-23T02:30:44.294Z,15.64
2022-08-23T02:31:44.275Z,15.62
2022-08-23T02:32:44.252Z,15.61
2022-08-23T02:34:38.698Z,15.57
2022-08-23T02:34:44.290Z,15.61
2022-08-23T02:35:45.297Z,15.52
2022-08-23T02:36:44.322Z,15.57
2022-08-23T02:37:44.265Z,15.48
2022-08-23T02:38:44.293Z,15.42
2022-08-23T02:39:44.338Z,15.42
2022-08-23T02:40:44.257Z,15.42
2022-08-23T02:41:44.246Z,15.39
2022-08-23T02:42:44.224Z,15.33
2022-08-23T02:43:44.242Z,15.37
2022-08-23T02:44:44.206Z,15.30
2022-08-23T02:45:44.197Z,15.27
2022-08-23T02:46:44.191Z,15.22
2022-08-23T02:47:44.195Z,15.27
2022-08-23T02:48:44.226Z,15.22
2022-08-23T02:49:44.170Z,15.30
2022-08-23T02:50:44.153Z,15.24
2022-08-23T02:51:44.144Z,15.30
2022-08-23T02:52:44.130Z,15.14
2022-08-23T02:53:44.160Z,15.22
2022-08-23T02:54:44.123Z,15.24
2022-08-23T02:55:44.117Z,15.27
2022-08-23T02:56:44.108Z,15.18
2022-08-23T02:57:44.110Z,15.07
2022-08-23T02:58:44.117Z,15.12
2022-08-23T02:59:44.074Z,15.06
2022-08-23T03:00:44.069Z,15.09
2022-08-23T03:01:44.056Z,15.07
2022-08-23T03:02:44.098Z,15.00
2022-08-23T03:03:45.074Z,15.02
2022-08-23T03:04:44.043Z,15.00
2022-08-23T03:05:44.031Z,14.97
2022-08-23T03:06:44.028Z,15.07
2022-08-23T03:07:44.006Z,14.99
2022-08-23T03:08:44.042Z,15.02
2022-08-23T03:09:44.001Z,15.07
2022-08-23T03:10:43.987Z,15.00
2022-08-23T03:11:43.983Z,14.93
2022-08-23T03:12:43.976Z,15.06
2022-08-23T03:13:44.001Z,14.96
2022-08-23T03:14:43.953Z,15.09
2022-08-23T03:15:43.942Z,15.12
2022-08-23T03:16:43.933Z,14.99
2022-08-23T03:17:43.926Z,15.06
2022-08-23T03:18:43.963Z,15.04
2022-08-23T03:19:43.919Z,14.99
2022-08-23T03:20:43.907Z,15.03
2022-08-23T03:21:43.903Z,14.96
2022-08-23T03:22:48.442Z,15.00
2022-08-23T03:23:44.901Z,15.00
2022-08-23T03:24:43.868Z,15.09
2022-08-23T03:25:43.862Z,15.12
2022-08-23T03:26:43.856Z,15.12
2022-08-23T03:27:44.651Z,15.22
2022-08-23T03:28:43.882Z,15.19
2022-08-23T03:29:43.821Z,15.18
2022-08-23T03:30:44.801Z,15.22
2022-08-23T03:31:43.769Z,15.28
2022-08-23T03:32:49.085Z,15.37
2022-08-23T03:33:44.771Z,15.37
2022-08-23T03:34:43.729Z,15.42
2022-08-23T03:35:44.724Z,15.54
2022-08-23T03:36:43.715Z,15.60
2022-08-23T03:37:43.708Z,15.72
2022-08-23T03:38:43.700Z,15.62
2022-08-23T03:39:43.771Z,15.73
2022-08-23T03:40:43.680Z,15.64
2022-08-23T03:41:43.680Z,15.70
2022-08-23T03:42:43.668Z,15.68
2022-08-23T03:43:43.659Z,15.72
2022-08-23T03:44:43.680Z,15.70
2022-08-23T03:45:43.639Z,15.72
2022-08-23T03:46:43.636Z,15.69
2022-08-23T03:47:43.628Z,15.64
2022-08-23T03:48:43.622Z,15.68
2022-08-23T03:49:43.632Z,15.75
2022-08-23T03:50:43.597Z,15.72
2022-08-23T03:51:43.589Z,15.77
2022-08-23T03:52:43.579Z,15.76
2022-08-23T03:53:43.564Z,15.82
2022-08-23T03:54:43.603Z,15.87
2022-08-23T03:55:43.555Z,15.91
2022-08-23T03:56:43.554Z,15.80
2022-08-23T03:57:43.533Z,15.92
2022-08-23T03:58:43.539Z,15.91
2022-08-23T03:59:43.552Z,15.88
2022-08-23T04:00:43.506Z,15.83
2022-08-23T04:01:43.549Z,15.87
2022-08-23T04:02:43.505Z,15.90
2022-08-23T04:03:43.494Z,15.90
2022-08-23T04:04:43.514Z,15.92
2022-08-23T04:05:43.473Z,15.98
2022-08-23T04:06:43.464Z,15.92
2022-08-23T04:07:43.450Z,15.79
2022-08-23T04:08:44.448Z,15.87
2022-08-23T04:09:43.467Z,15.87
2022-08-23T04:10:43.425Z,15.80
2022-08-23T04:11:43.431Z,15.92
2022-08-23T04:12:43.412Z,15.91
2022-08-23T04:13:43.417Z,15.92
2022-08-23T04:14:43.433Z,15.98
2022-08-23T04:15:43.572Z,15.97
2022-08-23T04:16:44.392Z,15.91
2022-08-23T04:17:43.368Z,15.91
2022-08-23T04:18:43.417Z,16.00
2022-08-23T04:19:43.381Z,16.00
2022-08-23T04:20:43.342Z,16.09
2022-08-23T04:21:43.330Z,16.05
2022-08-23T04:22:43.335Z,15.95
2022-08-23T04:23:43.322Z,15.97
2022-08-23T04:24:43.339Z,15.94
2022-08-23T04:25:43.303Z,15.95
2022-08-23T04:26:43.516Z,15.95
2022-08-23T04:27:43.286Z,15.95
2022-08-23T04:28:43.270Z,16.09
2022-08-23T04:29:43.290Z,15.98
2022-08-23T04:30:44.255Z,16.06
2022-08-23T04:31:43.255Z,16.08
2022-08-23T04:32:43.241Z,16.12
2022-08-23T04:33:43.239Z,16.16
2022-08-23T04:34:45.665Z,16.20
2022-08-23T04:35:44.222Z,16.20
2022-08-23T04:36:50.050Z,16.26
2022-08-23T04:37:44.206Z,16.24
2022-08-23T04:38:43.188Z,16.36
2022-08-23T04:39:43.388Z,16.46
2022-08-23T04:40:44.169Z,16.46
2022-08-23T04:41:43.167Z,16.47
2022-08-23T04:42:43.164Z,16.57
2022-08-23T04:43:43.148Z,16.69
2022-08-23T04:44:43.171Z,16.61
2022-08-23T04:45:43.140Z,16.79
2022-08-23T04:46:43.124Z,16.74
2022-08-23T04:47:43.123Z,16.72
2022-08-23T04:48:43.106Z,16.61
2022-08-23T04:49:43.128Z,16.74
2022-08-23T04:50:43.090Z,16.79
2022-08-23T04:51:43.079Z,16.80
2022-08-23T04:52:44.081Z,16.99
2022-08-23T04:53:43.065Z,17.24
2022-08-23T04:54:43.078Z,17.49
2022-08-23T04:55:43.054Z,17.85
2022-08-23T04:56:43.035Z,17.95
2022-08-23T04:57:43.026Z,18.20
2022-08-23T04:58:43.025Z,18.30
2022-08-23T04:59:43.049Z,18.44
2022-08-23T05:00:43.047Z,18.44
2022-08-23T05:01:43.017Z,18.71
2022-08-23T05:02:43.388Z,18.75
2022-08-23T05:03:42.975Z,18.90
2022-08-23T05:04:43.014Z,18.98
2022-08-23T05:05:42.975Z,19.09
2022-08-23T05:06:42.951Z,19.24
2022-08-23T05:07:43.245Z,19.51
2022-08-23T05:08:43.951Z,19.69
2022-08-23T05:09:42.933Z,20.07
2022-08-23T05:10:42.954Z,20.26
2022-08-23T05:11:42.921Z,20.06
2022-08-23T05:12:42.905Z,20.17
2022-08-23T05:13:42.896Z,20.09
2022-08-23T05:14:44.338Z,20.14
2022-08-23T05:15:43.906Z,19.97
2022-08-23T05:16:42.869Z,20.07
2022-08-23T05:17:42.862Z,20.48
2022-08-23T05:18:42.858Z,20.59
2022-08-23T05:19:44.327Z,20.84
2022-08-23T05:20:42.874Z,20.87
2022-08-23T05:21:42.836Z,21.26
2022-08-23T05:22:42.827Z,21.58
2022-08-23T05:23:42.812Z,21.70
2022-08-23T05:24:42.816Z,21.57
2022-08-23T05:25:42.839Z,21.55
2022-08-23T05:26:42.804Z,21.50
2022-08-23T05:27:42.801Z,21.57
2022-08-23T05:28:42.778Z,21.59
2022-08-23T05:29:42.765Z,21.88
2022-08-23T05:30:42.788Z,22.23
2022-08-23T05:31:43.763Z,22.41
2022-08-23T05:32:42.735Z,22.35
2022-08-23T05:33:42.732Z,22.51
2022-08-23T05:34:42.722Z,22.51
2022-08-23T05:35:42.737Z,22.38
2022-08-23T05:36:48.303Z,22.36
2022-08-23T05:37:43.698Z,22.23
2022-08-23T05:38:42.691Z,21.85
2022-08-23T05:39:42.711Z,21.81
2022-08-23T05:40:42.712Z,21.92
2022-08-23T05:41:42.669Z,22.22
2022-08-23T05:42:42.661Z,22.58
2022-08-23T05:43:42.647Z,22.60
2022-08-23T05:44:42.636Z,22.87
2022-08-23T05:45:42.660Z,22.95
2022-08-23T05:46:42.922Z,23.25
2022-08-23T05:47:42.620Z,23.62
2022-08-23T05:48:42.611Z,23.74
2022-08-23T05:49:42.599Z,23.74
2022-08-23T05:50:42.625Z,23.59
2022-08-23T05:51:42.588Z,23.66
2022-08-23T05:52:42.577Z,23.47
2022-08-23T05:53:42.565Z,23.61
2022-08-23T05:54:42.560Z,23.40
2022-08-23T05:55:42.585Z,23.63
2022-08-23T05:56:42.551Z,23.41
2022-08-23T05:57:42.532Z,23.15
2022-08-23T05:58:42.526Z,22.73
2022-08-23T05:59:42.516Z,22.22
2022-08-23T06:00:42.590Z,21.99
2022-08-23T06:01:42.510Z,21.72
2022-08-23T06:02:42.491Z,21.63
2022-08-23T06:03:42.531Z,21.36
2022-08-23T06:04:42.475Z,21.35
2022-08-23T06:05:42.487Z,21.21
2022-08-23T06:06:42.451Z,20.97
2022-08-23T06:07:42.447Z,20.89
2022-08-23T06:08:46.347Z,20.87
2022-08-23T06:09:42.428Z,20.87
2022-08-23T06:10:42.642Z,20.80
2022-08-23T06:11:43.409Z,20.89
2022-08-23T06:12:42.396Z,20.72
2022-08-23T06:13:43.437Z,20.66
2022-08-23T06:14:42.392Z,20.63
2022-08-23T06:15:42.403Z,20.62
2022-08-23T06:16:42.368Z,20.44
2022-08-23T06:17:42.367Z,20.48
2022-08-23T06:18:42.351Z,20.62
2022-08-23T06:19:42.337Z,20.82
2022-08-23T06:20:42.458Z,20.87
2022-08-23T06:21:42.329Z,20.77
2022-08-23T06:22:42.338Z,20.66
2022-08-23T06:23:42.307Z,20.67
2022-08-23T06:24:42.307Z,20.62
2022-08-23T06:25:43.155Z,20.69
2022-08-23T06:26:42.284Z,20.74
2022-08-23T06:27:42.288Z,21.26
2022-08-23T06:28:51.132Z,21.92
2022-08-23T06:29:43.258Z,22.43
2022-08-23T06:30:42.363Z,22.91
2022-08-23T06:31:42.242Z,23.48
2022-08-23T06:32:42.297Z,23.76
2022-08-23T06:33:42.297Z,23.74
2022-08-23T06:34:43.213Z,24.08
2022-08-23T06:35:42.240Z,24.33
2022-08-23T06:36:42.198Z,24.62
2022-08-23T06:37:42.198Z,25.13
2022-08-23T06:38:42.177Z,25.37
2022-08-23T06:39:42.251Z,25.63
2022-08-23T06:40:42.173Z,25.75
2022-08-23T06:41:42.187Z,26.04
2022-08-23T06:42:42.148Z,26.11
2022-08-23T06:43:42.145Z,25.45
2022-08-23T06:44:42.145Z,25.59
2022-08-23T06:45:42.151Z,26.16
2022-08-23T06:46:43.155Z,26.26
2022-08-23T06:47:42.109Z,26.53
2022-08-23T06:48:42.102Z,26.40
2022-08-23T06:49:42.099Z,26.70
2022-08-23T06:50:43.110Z,27.22
2022-08-23T06:51:42.085Z,27.52
2022-08-23T06:52:42.068Z,27.48
2022-08-23T06:53:42.062Z,27.41
2022-08-23T06:54:42.047Z,27.65
2022-08-23T06:55:42.098Z,27.83
2022-08-23T06:56:42.033Z,27.17
2022-08-23T06:57:42.023Z,27.12
2022-08-23T06:58:42.020Z,27.48
2022-08-23T06:59:42.009Z,27.85
2022-08-23T07:00:42.082Z,27.99
2022-08-23T07:01:46.579Z,27.97
2022-08-23T07:02:44.013Z,28.09
2022-08-23T07:03:43.019Z,28.42
2022-08-23T07:04:41.975Z,28.51
2022-08-23T07:05:42.027Z,28.90
2022-08-23T07:06:41.989Z,28.85
2022-08-23T07:07:44.295Z,28.85
2022-08-23T07:08:41.949Z,28.86
2022-08-23T07:09:41.952Z,29.10
2022-08-23T07:10:41.975Z,28.82
2022-08-23T07:11:41.959Z,28.78
2022-08-23T07:12:41.935Z,29.60
2022-08-23T07:13:48.414Z,29.65
2022-08-23T07:14:41.898Z,29.68
2022-08-23T07:15:41.898Z,29.85
2022-08-23T07:16:41.914Z,29.83
2022-08-23T07:17:41.877Z,29.90
2022-08-23T07:18:41.875Z,29.65
2022-08-23T07:19:41.863Z,29.46
2022-08-23T07:20:41.862Z,29.62
2022-08-23T07:21:41.880Z,29.79
2022-08-23T07:22:41.841Z,29.84
2022-08-23T07:23:44.866Z,30.48
2022-08-23T07:24:42.832Z,30.81
2022-08-23T07:25:41.813Z,30.81
2022-08-23T07:26:41.837Z,30.21
2022-08-23T07:27:41.803Z,30.18
2022-08-23T07:28:41.790Z,29.81
2022-08-23T07:29:41.780Z,30.13
2022-08-23T07:30:45.117Z,30.37
2022-08-23T07:31:42.843Z,30.65
2022-08-23T07:32:41.759Z,30.52
2022-08-23T07:33:41.756Z,30.28
2022-08-23T07:34:41.747Z,30.29
2022-08-23T07:35:41.738Z,30.05
2022-08-23T07:36:41.771Z,29.05
2022-08-23T07:37:41.723Z,28.27
2022-08-23T07:38:42.754Z,28.51
2022-08-23T07:39:41.726Z,29.42
2022-08-23T07:40:41.762Z,29.94
2022-08-23T07:41:41.730Z,30.22
2022-08-23T07:42:41.678Z,30.60
2022-08-23T07:43:41.670Z,30.99
2022-08-23T07:44:41.685Z,31.48
2022-08-23T07:45:41.658Z,31.51
2022-08-23T07:46:41.763Z,31.59
2022-08-23T07:47:45.428Z,31.31
2022-08-23T07:48:53.897Z,30.91
2022-08-23T07:49:43.632Z,30.69
2022-08-23T07:50:54.741Z,30.94
2022-08-23T07:51:42.639Z,31.34
2022-08-23T07:52:41.616Z,30.44
2022-08-23T07:53:44.210Z,29.97
2022-08-23T07:54:48.275Z,30.60
2022-08-23T07:55:42.588Z,30.96
2022-08-23T07:56:41.608Z,31.46
2022-08-23T07:57:41.571Z,31.11
2022-08-23T07:58:41.563Z,31.43
2022-08-23T07:59:41.560Z,31.29
2022-08-23T08:00:41.561Z,31.67
2022-08-23T08:01:41.612Z,31.98
2022-08-23T08:02:41.599Z,32.38
2022-08-23T08:03:41.537Z,32.52
2022-08-23T08:04:41.520Z,32.25
2022-08-23T08:05:41.517Z,32.20
2022-08-23T08:06:41.559Z,32.75
2022-08-23T08:07:41.520Z,32.83
2022-08-23T08:08:41.502Z,33.40
2022-08-23T08:09:41.495Z,33.47
2022-08-23T08:10:41.482Z,33.49
2022-08-23T08:11:41.509Z,33.50
2022-08-23T08:12:41.488Z,33.62
2022-08-23T08:13:41.484Z,33.81
2022-08-23T08:14:41.474Z,33.98
2022-08-23T08:15:41.480Z,33.71
2022-08-23T08:16:41.439Z,33.50
2022-08-23T08:17:41.464Z,33.47
2022-08-23T08:18:41.424Z,32.87
2022-08-23T08:19:41.413Z,32.49
2022-08-23T08:20:41.410Z,32.06
2022-08-23T08:21:42.022Z,31.94
2022-08-23T08:22:45.418Z,32.08
2022-08-23T08:23:43.383Z,32.84
2022-08-23T08:24:41.380Z,33.63
2022-08-23T08:25:41.370Z,33.80
2022-08-23T08:26:41.362Z,33.80
2022-08-23T08:27:41.385Z,34.15
2022-08-23T08:28:41.350Z,33.81
2022-08-23T08:29:41.347Z,33.84
2022-08-23T08:30:41.348Z,33.50
2022-08-23T08:31:41.387Z,32.50
2022-08-23T08:32:47.209Z,32.83
2022-08-23T08:33:43.325Z,33.28
2022-08-23T08:34:41.336Z,32.91
2022-08-23T08:35:41.309Z,33.12
2022-08-23T08:36:41.309Z,33.63
2022-08-23T08:37:41.323Z,33.44
2022-08-23T08:38:47.986Z,32.64
2022-08-23T08:39:42.369Z,32.27
2022-08-23T08:40:41.265Z,31.75
2022-08-23T08:41:41.258Z,32.23
2022-08-23T08:42:41.286Z,32.98
2022-08-23T08:43:41.235Z,33.46
2022-08-23T08:44:41.292Z,34.18
2022-08-23T08:45:41.242Z,33.63
2022-08-23T08:46:42.285Z,33.62
2022-08-23T08:47:41.249Z,32.74
2022-08-23T08:48:41.214Z,32.74
2022-08-23T08:49:41.207Z,33.68
2022-08-23T08:50:41.199Z,33.92
2022-08-23T08:51:41.202Z,34.14
2022-08-23T08:52:41.230Z,33.99
2022-08-23T08:53:41.186Z,33.66
2022-08-23T08:54:43.889Z,32.87
2022-08-23T08:55:42.164Z,32.79
2022-08-23T08:56:41.158Z,32.25
2022-08-23T08:57:41.184Z,31.78
2022-08-23T08:58:41.140Z,32.40
2022-08-23T08:59:41.148Z,32.40
2022-08-23T09:00:41.125Z,32.49
2022-08-23T09:01:41.158Z,31.48
2022-08-23T09:02:41.204Z,31.96
2022-08-23T09:03:43.101Z,32.72
2022-08-23T09:04:42.107Z,33.58
2022-08-23T09:05:41.113Z,33.80
2022-08-23T09:06:41.096Z,34.08
2022-08-23T09:07:41.115Z,33.84
2022-08-23T09:08:41.078Z,33.59
2022-08-23T09:09:41.081Z,33.71
2022-08-23T09:10:41.065Z,34.34
2022-08-23T09:11:41.080Z,34.59
2022-08-23T09:12:41.084Z,33.85
2022-08-23T09:13:45.464Z,32.61
2022-08-23T09:14:43.042Z,31.97
2022-08-23T09:15:41.093Z,32.25
2022-08-23T09:16:41.189Z,32.47
2022-08-23T09:17:41.052Z,33.20
2022-08-23T09:18:41.031Z,33.44
2022-08-23T09:19:41.041Z,33.24
2022-08-23T09:20:41.004Z,33.49
2022-08-23T09:21:41.019Z,33.66
2022-08-23T09:22:41.517Z,32.61
2022-08-23T09:23:40.993Z,32.38
2022-08-23T09:24:40.977Z,32.45
2022-08-23T09:25:58.802Z,32.40
2022-08-23T09:26:42.066Z,33.08
2022-08-23T09:27:40.994Z,33.43
2022-08-23T09:28:40.953Z,33.33
2022-08-23T09:29:47.881Z,34.00
2022-08-23T09:30:41.947Z,33.62
2022-08-23T09:31:41.009Z,32.46
2022-08-23T09:32:40.962Z,32.42
2022-08-23T09:33:40.919Z,32.38
2022-08-23T09:34:40.908Z,32.75
2022-08-23T09:35:40.896Z,33.01
2022-08-23T09:36:40.906Z,33.65
2022-08-23T09:37:40.909Z,33.09
2022-08-23T09:38:43.357Z,32.60
2022-08-23T09:39:41.934Z,33.28
2022-08-23T09:40:41.405Z,33.63
2022-08-23T09:41:40.869Z,34.03
2022-08-23T09:42:40.876Z,33.76
2022-08-23T09:43:40.886Z,33.37
2022-08-23T09:44:41.196Z,33.77
2022-08-23T09:45:40.841Z,34.20
2022-08-23T09:46:40.901Z,34.34
2022-08-23T09:47:44.732Z,33.96
2022-08-23T09:48:40.862Z,34.02
2022-08-23T09:49:40.817Z,34.55
2022-08-23T09:50:40.836Z,33.76
2022-08-23T09:51:40.840Z,33.27
2022-08-23T09:52:40.789Z,33.18
2022-08-23T09:53:41.147Z,32.67
2022-08-23T09:54:44.219Z,32.95
2022-08-23T09:55:41.767Z,32.40
2022-08-23T09:56:40.765Z,32.42
2022-08-23T09:57:40.760Z,31.87
2022-08-23T09:58:40.781Z,32.18
2022-08-23T09:59:40.746Z,33.04
2022-08-23T10:00:40.739Z,33.70
2022-08-23T10:01:40.784Z,33.76
2022-08-23T10:02:40.726Z,32.79
2022-08-23T10:03:40.749Z,33.52
2022-08-23T10:04:40.788Z,33.49
2022-08-23T10:05:40.713Z,33.81
2022-08-23T10:06:40.708Z,33.34
2022-08-23T10:07:42.968Z,33.56
2022-08-23T10:08:43.229Z,34.72
2022-08-23T10:09:41.681Z,35.13
2022-08-23T10:10:40.680Z,34.58
2022-08-23T10:11:40.672Z,33.95
2022-08-23T10:12:40.679Z,33.61
2022-08-23T10:13:40.703Z,33.04
2022-08-23T10:14:40.670Z,32.95
2022-08-23T10:15:40.684Z,33.55
2022-08-23T10:16:40.635Z,32.87
2022-08-23T10:17:40.632Z,33.06
2022-08-23T10:18:40.670Z,32.72
2022-08-23T10:19:40.617Z,33.06
2022-08-23T10:20:40.615Z,34.10
2022-08-23T10:21:40.603Z,33.78
2022-08-23T10:22:40.594Z,33.36
2022-08-23T10:23:40.624Z,32.84
2022-08-23T10:24:40.587Z,32.84
2022-08-23T10:25:40.580Z,33.49
2022-08-23T10:26:40.574Z,33.92
2022-08-23T10:27:40.565Z,34.34
2022-08-23T10:28:40.599Z,34.29
2022-08-23T10:29:40.550Z,34.05
2022-08-23T10:30:40.563Z,34.58
2022-08-23T10:31:40.545Z,34.93
2022-08-23T10:32:40.542Z,34.21
2022-08-23T10:33:40.527Z,34.51
2022-08-23T10:34:41.560Z,34.37
2022-08-23T10:35:40.515Z,33.90
2022-08-23T10:36:40.509Z,33.14
2022-08-23T10:37:40.510Z,33.20
2022-08-23T10:38:40.501Z,33.01
2022-08-23T10:39:40.548Z,33.24
2022-08-23T10:40:40.489Z,33.33
2022-08-23T10:41:40.485Z,33.33
2022-08-23T10:42:40.478Z,33.85
2022-08-23T10:43:40.461Z,34.40
2022-08-23T10:44:40.487Z,34.55
2022-08-23T10:45:40.448Z,35.27
2022-08-23T10:46:40.470Z,35.67
2022-08-23T10:47:40.437Z,34.42
2022-08-23T10:48:40.430Z,33.93
2022-08-23T10:49:40.454Z,34.64
2022-08-23T10:50:40.423Z,34.67
2022-08-23T10:51:42.107Z,34.67
2022-08-23T10:52:40.403Z,34.59
2022-08-23T10:53:40.394Z,34.52
2022-08-23T10:54:40.429Z,35.20
2022-08-23T10:55:40.395Z,35.36
2022-08-23T10:56:44.798Z,35.79
2022-08-23T10:57:42.365Z,35.62
2022-08-23T10:58:40.356Z,34.93
2022-08-23T10:59:40.410Z,33.68
2022-08-23T11:00:40.352Z,33.02
2022-08-23T11:01:40.363Z,33.49
2022-08-23T11:02:40.359Z,33.47
2022-08-23T11:03:40.324Z,34.56
2022-08-23T11:04:40.353Z,35.45
2022-08-23T11:05:40.315Z,35.26
2022-08-23T11:06:40.306Z,35.24
2022-08-23T11:07:40.304Z,34.18
2022-08-23T11:08:42.402Z,33.73
2022-08-23T11:09:41.331Z,33.29
2022-08-23T11:10:40.292Z,33.59
2022-08-23T11:13:05.869Z,35.26
2022-08-23T11:14:05.883Z,36.22
2022-08-23T11:15:05.909Z,35.30
2022-08-23T11:16:05.957Z,34.30
2022-08-23T11:17:05.866Z,33.61
2022-08-23T11:18:05.864Z,33.49
2022-08-23T11:19:05.856Z,33.83
2022-08-23T11:20:07.027Z,34.97
2022-08-23T11:21:06.983Z,34.97
2022-08-23T11:22:06.990Z,35.61
2022-08-23T11:23:06.977Z,36.75
2022-08-23T11:24:06.971Z,36.97
2022-08-23T11:25:06.992Z,36.46
2022-08-23T11:26:06.953Z,36.02
2022-08-23T11:27:07.501Z,35.24
2022-08-23T11:28:06.948Z,35.04
2022-08-23T11:29:06.940Z,34.37
2022-08-23T11:30:06.952Z,34.89
2022-08-23T11:31:06.968Z,35.87
2022-08-23T11:32:06.926Z,36.27
2022-08-23T11:33:06.918Z,36.49
2022-08-23T11:34:06.898Z,36.18
2022-08-23T11:35:06.926Z,35.40
2022-08-23T11:36:06.899Z,35.12
2022-08-23T11:37:06.885Z,35.45
2022-08-23T11:38:07.047Z,35.71
2022-08-23T11:39:06.874Z,35.77
2022-08-23T11:40:06.932Z,34.54
2022-08-23T11:41:09.654Z,33.61
2022-08-23T11:42:06.850Z,33.66
2022-08-23T11:43:06.856Z,34.21
2022-08-23T11:44:06.840Z,34.67
2022-08-23T11:45:06.865Z,34.83
2022-08-23T11:46:06.873Z,34.47
2022-08-23T11:47:06.865Z,35.20
2022-08-23T11:48:06.812Z,34.87
2022-08-23T11:49:06.819Z,35.43
2022-08-23T11:50:06.840Z,35.67
2022-08-23T11:51:06.797Z,35.69
2022-08-23T11:52:06.796Z,36.66
2022-08-23T11:53:06.792Z,36.68
2022-08-23T11:54:06.775Z,36.55
2022-08-23T11:55:06.802Z,36.96
2022-08-23T11:56:06.769Z,37.26
2022-08-23T11:57:06.759Z,36.81
2022-08-23T11:58:06.748Z,35.36
2022-08-23T11:59:08.837Z,34.94
2022-08-23T12:00:06.850Z,35.11
2022-08-23T12:01:06.746Z,35.28
2022-08-23T12:02:06.764Z,34.86
2022-08-23T12:03:06.804Z,34.97
2022-08-23T12:04:06.862Z,33.84
2022-08-23T12:05:06.983Z,33.23
2022-08-23T12:06:06.710Z,33.49
2022-08-23T12:07:06.697Z,33.80
2022-08-23T12:08:06.685Z,33.76
2022-08-23T12:09:06.688Z,34.52
2022-08-23T12:10:06.678Z,35.45
2022-08-23T12:11:06.727Z,36.39
2022-08-23T12:12:06.742Z,36.58
2022-08-23T12:13:08.724Z,35.65
2022-08-23T12:14:06.647Z,34.79
2022-08-23T12:15:06.644Z,34.29
2022-08-23T12:16:06.762Z,34.93
2022-08-23T12:17:07.631Z,35.52
2022-08-23T12:18:06.640Z,35.65
2022-08-23T12:19:06.616Z,35.84
2022-08-23T12:20:06.613Z,36.61
2022-08-23T12:21:07.642Z,37.12
2022-08-23T12:22:06.602Z,36.40
2022-08-23T12:23:06.594Z,35.84
2022-08-23T12:24:06.597Z,35.39
2022-08-23T12:25:06.583Z,35.50
2022-08-23T12:26:06.610Z,34.86
2022-08-23T12:27:06.567Z,34.74
2022-08-23T12:28:06.589Z,34.12
2022-08-23T12:29:06.551Z,33.81
2022-08-23T12:30:06.579Z,34.14
2022-08-23T12:31:08.113Z,34.15
2022-08-23T12:32:07.543Z,34.20
2022-08-23T12:33:06.536Z,33.93
2022-08-23T12:34:06.533Z,33.49
2022-08-23T12:35:06.556Z,34.26
2022-08-23T12:36:15.473Z,35.08
2022-08-23T12:37:09.493Z,35.48
2022-08-23T12:38:07.505Z,36.12
2022-08-23T12:39:06.491Z,36.33
2022-08-23T12:40:06.530Z,36.51
2022-08-23T12:41:06.485Z,36.96
2022-08-23T12:42:06.919Z,37.18
2022-08-23T12:43:06.473Z,37.18
2022-08-23T12:44:06.459Z,36.61
2022-08-23T12:45:06.496Z,36.58
2022-08-23T12:46:06.841Z,36.97
2022-08-23T12:47:06.437Z,36.92
2022-08-23T12:48:06.448Z,36.37
2022-08-23T12:49:06.426Z,36.22
2022-08-23T12:50:06.475Z,36.27
2022-08-23T12:51:06.431Z,36.41
2022-08-23T12:52:06.409Z,36.21
2022-08-23T12:53:06.407Z,36.43
2022-08-23T12:54:06.390Z,36.40